This is the latest recevied weather packets stored in our database for station/object OK1LPD-6. If no packets are shown the sender has not sent any weather packets the latest 10 day(s).
| Time | Temp. | Humidity | Pressure | Rain* | Wind** | Luminosity | Snow |
|---|---|---|---|---|---|---|---|
| 1777355138 | 10° C | 57% | 1021.6 hPa | 0 mm | - | - | - |
| 1777354520 | 7.78° C | 63% | 1021.5 hPa | 0 mm | - | - | - |
| 1777353921 | 6.67° C | 70% | 1021.4 hPa | 0 mm | - | - | - |
| 1777353340 | 6.67° C | 72% | 1021.5 hPa | 0 mm | - | - | - |
| 1777352721 | 5.56° C | 75% | 1021.5 hPa | 0 mm | - | - | - |
| 1777352120 | 5.56° C | 75% | 1021.4 hPa | 0 mm | - | - | - |
| 1777351538 | 5° C | 77% | 1021.4 hPa | 0 mm | - | - | - |
| 1777350920 | 4.44° C | 78% | 1021.3 hPa | 0 mm | - | - | - |
| 1777350320 | 3.89° C | 80% | 1021.1 hPa | 0 mm | - | - | - |
| 1777349741 | 3.33° C | 81% | 1021.2 hPa | 0 mm | - | - | - |
| 1777349121 | 3.33° C | 82% | 1021.2 hPa | 0 mm | - | - | - |
| 1777348521 | 2.78° C | 82% | 1021.1 hPa | 0 mm | - | - | - |
| 1777347939 | 2.78° C | 82% | 1021 hPa | 0 mm | - | - | - |
| 1777347321 | 2.78° C | 82% | 1021.2 hPa | 0 mm | - | - | - |
| 1777346721 | 2.78° C | 81% | 1021.2 hPa | 0 mm | - | - | - |
| 1777346142 | 2.78° C | 81% | 1021.2 hPa | 0 mm | - | - | - |
| 1777345522 | 2.78° C | 81% | 1021 hPa | 0 mm | - | - | - |
| 1777344922 | 2.78° C | 81% | 1021 hPa | 0 mm | - | - | - |
| 1777344340 | 2.78° C | 81% | 1021 hPa | 0 mm | - | - | - |
| 1777343722 | 2.78° C | 80% | 1021.1 hPa | 0 mm | - | - | - |
| 1777343122 | 2.78° C | 80% | 1021 hPa | 0 mm | - | - | - |
| 1777342542 | 3.33° C | 80% | 1021.2 hPa | 0 mm | - | - | - |
| 1777341922 | 3.33° C | 80% | 1021.1 hPa | 0 mm | - | - | - |
| 1777341322 | 3.33° C | 80% | 1021 hPa | 0 mm | - | - | - |
| 1777340740 | 3.33° C | 79% | 1020.9 hPa | 0 mm | - | - | - |
* Rain latest hour (hover to see other rain measurements)
** Current wind speed in m/s (hover to see current wind gust speed)